Time;durP1;ratioP1;P1;durP2;ratioP2;P2;SDS_P1;SDS_P2;PMS_P1;PMS_P2;Temp;Humidity;BMP_temperature;BMP_pressure;BME280_temperature;BME280_humidity;BME280_pressure;Samples;Min_cycle;Max_cycle;Signal;HPM_P1;HPM_P2
2023/09/09 00:01:17;;;;;;;9.43;4.00;;;17.30;99.90;;;;;;4994392;28;20026;-85
2023/09/09 00:03:43;;;;;;;9.27;4.15;;;17.30;99.90;;;;;;4992864;28;20340;-84
2023/09/09 00:06:11;;;;;;;7.13;4.43;;;17.20;99.90;;;;;;4976083;28;20117;-83
2023/09/09 00:08:37;;;;;;;4.72;3.42;;;17.20;99.90;;;;;;4976355;28;20029;-83
2023/09/09 00:11:03;;;;;;;5.13;4.32;;;17.20;99.90;;;;;;4993376;28;20065;-83
2023/09/09 00:13:28;;;;;;;4.45;4.05;;;17.20;99.90;;;;;;4975714;28;20116;-83
2023/09/09 00:15:55;;;;;;;5.07;4.38;;;17.10;99.90;;;;;;4975948;28;20118;-83
2023/09/09 00:18:20;;;;;;;9.43;4.38;;;17.20;99.90;;;;;;4976252;28;20030;-84
2023/09/09 00:20:46;;;;;;;7.38;4.82;;;17.20;99.90;;;;;;4976288;28;20022;-84
2023/09/09 00:23:12;;;;;;;6.13;4.90;;;17.20;99.90;;;;;;4993678;28;20593;-85
2023/09/09 00:25:39;;;;;;;5.70;3.78;;;17.10;99.90;;;;;;4976403;28;20030;-85
2023/09/09 00:28:06;;;;;;;6.68;4.43;;;17.10;99.90;;;;;;4975852;28;20185;-83
2023/09/09 00:30:32;;;;;;;5.15;3.97;;;17.10;99.90;;;;;;4976182;28;20041;-85
2023/09/09 00:32:59;;;;;;;3.95;3.55;;;17.00;99.90;;;;;;4995559;28;20217;-85
2023/09/09 00:35:24;;;;;;;10.82;4.65;;;16.90;99.90;;;;;;4979801;28;20027;-84
2023/09/09 00:37:50;;;;;;;9.05;3.92;;;16.90;99.90;;;;;;4980160;28;20018;-85
2023/09/09 00:40:16;;;;;;;5.82;4.88;;;16.80;99.90;;;;;;4980375;28;20642;-84
2023/09/09 00:42:41;;;;;;;9.48;3.92;;;16.70;99.90;;;;;;4980940;28;20090;-85
2023/09/09 00:45:07;;;;;;;7.13;4.38;;;16.70;99.90;;;;;;4998018;28;20491;-83
2023/09/09 00:47:34;;;;;;;6.45;4.43;;;16.50;99.90;;;;;;4979773;28;20050;-84
2023/09/09 00:50:00;;;;;;;7.47;5.63;;;16.50;99.90;;;;;;4979376;28;20149;-84
2023/09/09 00:52:26;;;;;;;6.30;4.57;;;16.50;99.90;;;;;;4979950;28;20100;-84
2023/09/09 00:54:52;;;;;;;9.13;4.38;;;16.50;99.90;;;;;;4979871;28;20029;-85
2023/09/09 00:57:18;;;;;;;7.07;4.28;;;16.50;99.90;;;;;;4980548;28;20125;-85
2023/09/09 00:59:44;;;;;;;6.38;4.22;;;16.50;99.90;;;;;;4997129;28;20077;-85
2023/09/09 01:02:10;;;;;;;4.82;4.35;;;16.50;99.90;;;;;;4997144;28;20026;-85
2023/09/09 01:04:36;;;;;;;8.18;4.70;;;16.70;99.90;;;;;;4996790;28;20014;-86
2023/09/09 01:07:02;;;;;;;10.00;4.35;;;16.60;99.90;;;;;;4981695;28;20434;-85
2023/09/09 01:09:30;;;;;;;7.22;4.90;;;16.60;99.90;;;;;;4979629;28;20062;-83
2023/09/09 01:11:58;;;;;;;7.97;4.68;;;16.50;99.90;;;;;;4979461;28;20029;-86
2023/09/09 01:14:24;;;;;;;6.18;4.07;;;16.40;99.90;;;;;;4979586;28;20073;-82
2023/09/09 01:16:51;;;;;;;9.00;4.45;;;16.40;99.90;;;;;;4979461;28;20030;-85
2023/09/09 01:19:24;;;;;;;6.07;4.75;;;16.30;99.90;;;;;;4996635;28;20065;-84
2023/09/09 01:21:53;;;;;;;7.82;4.35;;;16.30;99.90;;;;;;4979555;28;20138;-86
2023/09/09 01:24:20;;;;;;;8.20;4.45;;;16.20;99.90;;;;;;4979560;28;20038;-85
2023/09/09 01:26:46;;;;;;;10.73;4.07;;;16.30;99.90;;;;;;4980025;28;20080;-85
2023/09/09 01:29:12;;;;;;;8.43;5.00;;;16.30;99.90;;;;;;4979094;28;20061;-85
2023/09/09 01:31:38;;;;;;;8.57;4.22;;;16.30;99.90;;;;;;4979244;28;20159;-86
2023/09/09 01:34:04;;;;;;;6.60;4.43;;;16.30;99.90;;;;;;4978881;28;20086;-84
2023/09/09 01:36:30;;;;;;;7.13;4.75;;;16.30;99.90;;;;;;4979588;28;20046;-83
2023/09/09 01:38:55;;;;;;;7.32;4.93;;;16.20;99.90;;;;;;4996788;28;20079;-85
2023/09/09 01:41:21;;;;;;;5.78;4.18;;;16.20;99.90;;;;;;4979557;28;20027;-85
2023/09/09 01:43:47;;;;;;;7.15;4.65;;;16.20;99.90;;;;;;4988319;28;20034;-85
2023/09/09 01:46:12;;;;;;;5.30;4.18;;;16.20;99.90;;;;;;4996361;28;20535;-85
2023/09/09 01:48:38;;;;;;;6.63;4.72;;;16.10;99.90;;;;;;4978677;28;20053;-85
2023/09/09 01:51:05;;;;;;;6.70;4.93;;;16.00;99.90;;;;;;4995480;28;20040;-83
2023/09/09 01:53:30;;;;;;;5.05;4.53;;;16.00;99.90;;;;;;4975155;28;20038;-84
2023/09/09 01:55:58;;;;;;;8.73;4.78;;;16.00;99.90;;;;;;4975906;28;20034;-85
2023/09/09 01:58:24;;;;;;;12.68;5.32;;;16.00;99.90;;;;;;4978046;28;20642;-85
2023/09/09 02:00:49;;;;;;;7.57;4.63;;;16.00;99.90;;;;;;4977854;28;20027;-85
2023/09/09 02:03:15;;;;;;;6.32;3.80;;;16.00;99.90;;;;;;4979316;28;20026;-81
2023/09/09 02:05:41;;;;;;;5.97;3.83;;;16.00;99.90;;;;;;4995284;28;20019;-86
2023/09/09 02:08:06;;;;;;;6.68;4.75;;;15.90;99.90;;;;;;4977949;28;20395;-85
2023/09/09 02:10:32;;;;;;;4.55;4.07;;;15.80;99.90;;;;;;4977763;28;20056;-84
2023/09/09 02:12:58;;;;;;;3.78;3.40;;;15.80;99.90;;;;;;4977887;28;20568;-84
2023/09/09 02:15:24;;;;;;;5.65;4.20;;;15.80;99.90;;;;;;4977285;28;20033;-83
2023/09/09 02:17:50;;;;;;;5.22;3.95;;;15.80;99.90;;;;;;4977669;28;20014;-84
2023/09/09 02:20:16;;;;;;;5.82;4.50;;;15.80;99.90;;;;;;4976806;28;20121;-85
2023/09/09 02:22:41;;;;;;;5.45;3.72;;;15.80;99.90;;;;;;4977284;28;20089;-81
2023/09/09 02:25:08;;;;;;;5.93;4.72;;;15.70;99.90;;;;;;4977717;28;20665;-84
2023/09/09 02:27:34;;;;;;;4.38;3.90;;;15.60;99.90;;;;;;4977902;28;20093;-84
2023/09/09 02:30:01;;;;;;;6.50;3.75;;;15.70;99.90;;;;;;4977413;28;20034;-85
2023/09/09 02:32:27;;;;;;;5.10;4.05;;;15.70;99.90;;;;;;4978007;28;20027;-83
2023/09/09 02:34:53;;;;;;;5.82;4.22;;;15.70;99.90;;;;;;4977796;28;20022;-83
2023/09/09 02:37:20;;;;;;;7.05;3.97;;;15.60;99.90;;;;;;4977671;28;20542;-86
2023/09/09 02:39:50;;;;;;;5.80;3.50;;;15.60;99.90;;;;;;4975854;28;20030;-85
2023/09/09 02:42:18;;;;;;;4.78;3.70;;;15.60;99.90;;;;;;4976991;28;20022;-85
2023/09/09 02:44:44;;;;;;;4.55;3.85;;;15.60;99.90;;;;;;4977514;28;20038;-84
2023/09/09 02:47:11;;;;;;;5.05;3.85;;;15.50;99.90;;;;;;4977038;28;20064;-84
2023/09/09 02:49:37;;;;;;;5.40;3.67;;;15.50;99.90;;;;;;4976727;28;20034;-84
2023/09/09 02:52:04;;;;;;;5.43;3.90;;;15.50;99.90;;;;;;4977239;28;20049;-85
2023/09/09 02:54:29;;;;;;;7.97;3.53;;;15.40;99.90;;;;;;4975887;28;20093;-83
2023/09/09 02:56:55;;;;;;;4.40;3.70;;;15.40;99.90;;;;;;4976610;28;20053;-84
2023/09/09 02:59:22;;;;;;;8.80;4.18;;;15.40;99.90;;;;;;4997140;28;20616;-85
2023/09/09 03:01:48;;;;;;;9.70;5.03;;;15.40;99.90;;;;;;4995319;28;20033;-86
2023/09/09 03:04:14;;;;;;;6.07;4.45;;;15.40;99.90;;;;;;4993844;28;20387;-87
2023/09/09 03:06:39;;;;;;;4.63;3.50;;;15.40;99.90;;;;;;4994361;28;20105;-84
2023/09/09 03:09:06;;;;;;;3.97;3.17;;;15.40;99.90;;;;;;4976579;28;20022;-85
2023/09/09 03:11:32;;;;;;;4.15;3.58;;;15.30;99.90;;;;;;4994263;28;20081;-86
2023/09/09 03:13:58;;;;;;;3.10;2.90;;;15.30;99.90;;;;;;4976702;28;20066;-82
2023/09/09 03:16:24;;;;;;;4.18;3.05;;;15.20;99.90;;;;;;4976967;28;20426;-85
2023/09/09 03:18:50;;;;;;;3.95;3.20;;;15.10;99.90;;;;;;4976645;28;20114;-85
2023/09/09 03:21:16;;;;;;;3.60;3.25;;;15.10;99.90;;;;;;4976734;28;20494;-84
2023/09/09 03:23:42;;;;;;;5.68;4.03;;;15.10;99.90;;;;;;4976574;28;20034;-87
2023/09/09 03:26:09;;;;;;;6.22;4.32;;;15.00;99.90;;;;;;4976521;28;20022;-81
2023/09/09 03:28:34;;;;;;;5.30;3.95;;;15.00;99.90;;;;;;4976649;28;20026;-85
2023/09/09 03:31:00;;;;;;;7.28;3.85;;;15.00;99.90;;;;;;4993915;28;20049;-83
2023/09/09 03:33:30;;;;;;;5.07;3.65;;;15.00;99.90;;;;;;4992909;28;20510;-85
2023/09/09 03:35:56;;;;;;;3.38;3.08;;;14.90;99.90;;;;;;4976143;28;20501;-82
2023/09/09 03:38:23;;;;;;;4.30;3.90;;;15.00;99.90;;;;;;4974202;28;20169;-83
2023/09/09 03:40:48;;;;;;;3.67;3.00;;;15.00;99.90;;;;;;4973491;28;20041;-83
2023/09/09 03:43:14;;;;;;;3.70;3.13;;;14.90;99.90;;;;;;4973408;28;20089;-84
2023/09/09 03:45:40;;;;;;;5.57;3.72;;;14.90;99.90;;;;;;4973255;28;20286;-81
2023/09/09 03:48:06;;;;;;;5.20;3.25;;;14.90;99.90;;;;;;4973498;28;20565;-82
2023/09/09 03:50:33;;;;;;;4.40;3.58;;;14.90;99.90;;;;;;4981490;28;20042;-85
2023/09/09 03:52:59;;;;;;;4.65;3.97;;;14.80;99.90;;;;;;4982645;28;20018;-84
2023/09/09 03:55:25;;;;;;;3.72;3.30;;;14.80;99.90;;;;;;4983209;28;20309;-79
2023/09/09 03:57:51;;;;;;;3.63;3.33;;;14.70;99.90;;;;;;5000510;28;20195;-79
2023/09/09 04:00:17;;;;;;;10.10;4.25;;;14.70;99.90;;;;;;4982798;28;20022;-80
2023/09/09 04:02:43;;;;;;;7.68;3.72;;;14.80;99.90;;;;;;5000452;28;20160;-81
2023/09/09 04:05:09;;;;;;;4.63;4.22;;;14.80;99.90;;;;;;4982119;28;20030;-80
2023/09/09 04:07:36;;;;;;;10.93;4.47;;;14.70;99.90;;;;;;4982326;28;20385;-80
2023/09/09 04:10:05;;;;;;;6.03;3.53;;;14.80;99.90;;;;;;4998661;28;20250;-81
2023/09/09 04:12:31;;;;;;;;;;;14.60;99.90;;;;;;4998496;28;20092;-81
2023/09/09 04:14:56;;;;;;;7.07;3.83;;;14.60;99.90;;;;;;4998475;28;19996;-81
2023/09/09 04:17:22;;;;;;;4.50;3.45;;;14.60;99.90;;;;;;4981846;28;20311;-81
2023/09/09 04:19:48;;;;;;;4.32;3.90;;;14.50;99.90;;;;;;4981969;28;20033;-81
2023/09/09 04:22:13;;;;;;;4.43;3.63;;;14.50;99.90;;;;;;4981762;28;20042;-80
2023/09/09 04:24:39;;;;;;;22.10;3.65;;;14.50;99.90;;;;;;4998969;28;20038;-81
2023/09/09 04:27:05;;;;;;;3.08;2.80;;;14.50;99.90;;;;;;4981148;28;20015;-80
2023/09/09 04:29:30;;;;;;;4.80;3.75;;;14.50;99.90;;;;;;4980995;28;20147;-80
2023/09/09 04:31:57;;;;;;;3.38;3.03;;;14.50;99.90;;;;;;4981239;28;20206;-81
2023/09/09 04:34:23;;;;;;;3.20;2.97;;;14.60;99.90;;;;;;4999212;28;20329;-80
2023/09/09 04:36:48;;;;;;;3.47;3.17;;;14.60;99.90;;;;;;4982570;28;20026;-81
2023/09/09 04:39:14;;;;;;;3.85;3.28;;;14.50;99.90;;;;;;4982907;28;20027;-81
2023/09/09 04:41:43;;;;;;;11.48;5.35;;;14.70;99.90;;;;;;5000040;28;20043;-81
2023/09/09 04:44:09;;;;;;;6.68;5.22;;;14.60;99.90;;;;;;4983115;28;20076;-81
2023/09/09 04:46:35;;;;;;;4.90;3.90;;;14.60;99.90;;;;;;4999354;28;20026;-82
2023/09/09 04:49:02;;;;;;;4.50;3.88;;;14.60;99.90;;;;;;5000191;28;20081;-81
2023/09/09 04:51:29;;;;;;;4.40;3.38;;;14.60;99.90;;;;;;4982570;28;20038;-81
2023/09/09 04:53:54;;;;;;;6.95;4.78;;;14.50;99.90;;;;;;4982793;28;20018;-81
2023/09/09 04:56:20;;;;;;;6.00;4.25;;;14.50;99.90;;;;;;4984042;28;20033;-81
2023/09/09 04:58:46;;;;;;;5.22;3.35;;;14.70;99.90;;;;;;4999793;28;20317;-81
2023/09/09 05:01:11;;;;;;;4.40;3.45;;;14.50;99.90;;;;;;4982116;28;20035;-80
2023/09/09 05:03:37;;;;;;;3.70;3.38;;;14.50;99.90;;;;;;4981723;28;20157;-81
2023/09/09 05:06:02;;;;;;;3.50;3.20;;;14.50;99.90;;;;;;4982841;28;20034;-81
2023/09/09 05:08:28;;;;;;;7.32;4.47;;;14.40;99.90;;;;;;5000141;28;20061;-81
2023/09/09 05:10:54;;;;;;;5.90;4.75;;;14.40;99.90;;;;;;4982969;28;20105;-81
2023/09/09 05:13:20;;;;;;;13.18;5.85;;;14.50;99.90;;;;;;4982710;28;20029;-81
2023/09/09 05:15:47;;;;;;;8.85;5.45;;;14.50;99.90;;;;;;4983074;28;20022;-81
2023/09/09 05:18:12;;;;;;;5.55;4.80;;;14.50;99.90;;;;;;5000770;28;20088;-81
2023/09/09 05:20:38;;;;;;;5.18;4.00;;;14.50;99.90;;;;;;5002834;28;20030;-81
2023/09/09 05:23:04;;;;;;;7.35;3.97;;;14.60;99.90;;;;;;4985554;28;20054;-81
2023/09/09 05:25:29;;;;;;;8.70;3.60;;;14.60;99.90;;;;;;4985694;28;20046;-81
2023/09/09 05:27:55;;;;;;;4.78;4.07;;;14.60;99.90;;;;;;4985374;28;20018;-81
2023/09/09 05:30:21;;;;;;;5.93;4.05;;;14.60;99.90;;;;;;4986013;28;20367;-80
2023/09/09 05:32:46;;;;;;;6.85;4.97;;;14.60;99.90;;;;;;4985832;28;20029;-81
2023/09/09 05:35:12;;;;;;;5.20;4.60;;;14.60;99.90;;;;;;4985041;28;20026;-80
2023/09/09 05:37:39;;;;;;;6.53;4.18;;;14.60;99.90;;;;;;4984938;28;20022;-80
2023/09/09 05:40:05;;;;;;;10.40;5.30;;;14.70;99.90;;;;;;5003014;28;20026;-81
2023/09/09 05:42:31;;;;;;;5.15;4.60;;;14.70;99.90;;;;;;5003090;28;20045;-81
2023/09/09 05:44:57;;;;;;;5.30;4.65;;;14.90;99.90;;;;;;4985548;28;20094;-80
2023/09/09 05:47:23;;;;;;;7.20;5.18;;;14.90;99.90;;;;;;5002815;28;20380;-80
2023/09/09 05:49:48;;;;;;;7.25;4.32;;;15.10;99.90;;;;;;5002577;28;20046;-80
2023/09/09 05:52:14;;;;;;;4.05;3.63;;;15.20;99.90;;;;;;4984752;28;20068;-80
2023/09/09 05:54:39;;;;;;;4.82;3.88;;;15.20;99.90;;;;;;4983838;28;20050;-80
2023/09/09 05:57:05;;;;;;;4.68;3.90;;;15.20;99.90;;;;;;5002319;28;20064;-80
2023/09/09 05:59:32;;;;;;;4.50;3.67;;;15.20;99.90;;;;;;5002361;28;20022;-80
2023/09/09 06:01:57;;;;;;;6.25;4.25;;;15.30;99.90;;;;;;5002493;28;20022;-79
2023/09/09 06:04:23;;;;;;;5.95;4.15;;;15.30;99.90;;;;;;5002278;28;20077;-78
2023/09/09 06:06:49;;;;;;;4.90;3.90;;;15.40;99.90;;;;;;4985358;28;20030;-78
2023/09/09 06:09:15;;;;;;;5.43;4.20;;;15.50;99.90;;;;;;4984185;28;20128;-79
2023/09/09 06:11:40;;;;;;;7.43;4.10;;;15.70;99.90;;;;;;4985143;28;20045;-78
2023/09/09 06:14:06;;;;;;;12.88;5.32;;;15.80;99.90;;;;;;5001836;28;20327;-78
2023/09/09 06:16:32;;;;;;;6.65;4.55;;;15.90;99.90;;;;;;5002740;28;20026;-78
2023/09/09 06:18:58;;;;;;;6.85;4.75;;;16.00;99.90;;;;;;4984627;28;20065;-78
2023/09/09 06:21:25;;;;;;;8.23;3.92;;;16.10;99.90;;;;;;4983944;28;20073;-78
2023/09/09 06:23:50;;;;;;;5.35;4.32;;;16.30;99.90;;;;;;4984351;28;20365;-79
2023/09/09 06:26:16;;;;;;;7.63;5.13;;;16.40;99.90;;;;;;4984628;28;20034;-77
2023/09/09 06:28:41;;;;;;;7.05;4.80;;;16.60;99.90;;;;;;5002822;28;20211;-77
2023/09/09 06:31:07;;;;;;;8.88;4.18;;;16.80;99.90;;;;;;4983054;28;20230;-79
2023/09/09 06:33:33;;;;;;;7.65;4.72;;;16.90;99.90;;;;;;5001182;28;20057;-79
2023/09/09 06:35:59;;;;;;;5.47;4.43;;;17.10;99.90;;;;;;4984326;28;20128;-79
2023/09/09 06:38:25;;;;;;;8.80;4.10;;;17.20;99.90;;;;;;5002076;28;20218;-79
2023/09/09 06:40:50;;;;;;;6.47;4.88;;;17.30;99.90;;;;;;4984496;28;20026;-78
2023/09/09 06:43:21;;;;;;;6.75;4.95;;;17.50;99.90;;;;;;5001993;28;20022;-85
2023/09/09 06:45:48;;;;;;;10.35;4.38;;;17.70;99.90;;;;;;5002010;28;20018;-84
2023/09/09 06:48:17;;;;;;;9.27;5.13;;;17.80;99.90;;;;;;5001250;28;20050;-84
2023/09/09 06:50:49;;;;;;;5.28;4.20;;;18.00;99.90;;;;;;4984236;28;20266;-85
2023/09/09 06:53:15;;;;;;;6.53;4.30;;;18.10;99.90;;;;;;4998769;28;20050;-85
2023/09/09 06:55:46;;;;;;;4.40;3.28;;;18.20;99.90;;;;;;5002473;28;20052;-83
2023/09/09 06:58:12;;;;;;;7.13;3.75;;;18.20;99.90;;;;;;4982650;28;20056;-76
2023/09/09 07:00:38;;;;;;;4.13;3.60;;;18.30;99.90;;;;;;4976884;28;20397;-80
2023/09/09 07:03:05;;;;;;;5.15;3.85;;;18.40;99.90;;;;;;4983057;28;20023;-84
2023/09/09 07:05:34;;;;;;;5.13;4.60;;;18.50;99.90;;;;;;4981814;28;20023;-85
2023/09/09 07:08:00;;;;;;;8.73;3.92;;;18.60;99.90;;;;;;4982894;28;20019;-87
2023/09/09 07:10:25;;;;;;;4.30;3.90;;;18.80;99.90;;;;;;4964798;28;20042;-82
2023/09/09 07:12:52;;;;;;;4.22;3.78;;;18.90;99.90;;;;;;4982188;28;20082;-85
2023/09/09 07:15:18;;;;;;;6.93;4.55;;;19.10;99.90;;;;;;4996085;28;20026;-85
2023/09/09 07:17:47;;;;;;;3.72;3.20;;;19.20;99.90;;;;;;5001947;28;20094;-83
2023/09/09 07:20:13;;;;;;;6.63;3.80;;;19.20;99.90;;;;;;4983764;28;20034;-83
2023/09/09 07:22:39;;;;;;;5.90;3.85;;;19.50;99.90;;;;;;5001898;28;20341;-82
2023/09/09 07:25:06;;;;;;;10.13;4.10;;;19.60;99.90;;;;;;5001132;28;20093;-82
2023/09/09 07:27:32;;;;;;;8.93;3.85;;;19.70;99.90;;;;;;5001709;28;20022;-83
2023/09/09 07:29:57;;;;;;;4.68;3.35;;;19.80;99.90;;;;;;5001537;28;20033;-84
2023/09/09 07:32:23;;;;;;;5.70;3.92;;;19.90;99.90;;;;;;4984075;28;20029;-86
2023/09/09 07:34:49;;;;;;;5.18;3.60;;;20.10;99.90;;;;;;4983717;28;20022;-88
2023/09/09 07:37:15;;;;;;;3.90;3.42;;;20.10;99.90;;;;;;5000942;28;20033;-86
2023/09/09 07:39:45;;;;;;;7.80;3.92;;;20.10;99.90;;;;;;4982907;28;20023;-84
2023/09/09 07:42:12;;;;;;;5.53;3.75;;;20.30;99.90;;;;;;5000317;28;20033;-86
2023/09/09 07:44:38;;;;;;;6.63;4.03;;;20.50;99.90;;;;;;4972906;28;20029;-86
2023/09/09 07:47:06;;;;;;;6.22;3.90;;;20.60;99.90;;;;;;4975112;28;20030;-79
2023/09/09 07:49:33;;;;;;;4.72;3.67;;;20.70;99.90;;;;;;4957641;28;20081;-85
2023/09/09 07:51:59;;;;;;;5.72;4.20;;;21.00;99.90;;;;;;4971729;28;20064;-86
2023/09/09 07:54:25;;;;;;;3.63;3.25;;;21.20;99.90;;;;;;4953904;28;20022;-78
2023/09/09 07:56:50;;;;;;;10.50;4.50;;;21.30;99.90;;;;;;4953304;28;20109;-84
2023/09/09 07:59:16;;;;;;;9.07;3.78;;;21.40;99.90;;;;;;4969929;28;20030;-80
2023/09/09 08:01:42;;;;;;;4.88;3.67;;;21.30;99.90;;;;;;4971859;28;20085;-80
2023/09/09 08:04:07;;;;;;;4.78;3.58;;;21.30;99.90;;;;;;4970768;28;20097;-82
2023/09/09 08:06:33;;;;;;;4.38;3.97;;;21.50;99.90;;;;;;4970678;28;20512;-82
2023/09/09 08:08:59;;;;;;;3.63;3.10;;;21.60;99.90;;;;;;4970981;28;20571;-79
2023/09/09 08:11:24;;;;;;;4.43;3.22;;;21.60;99.90;;;;;;4971137;28;20444;-79
2023/09/09 08:13:50;;;;;;;10.43;4.10;;;21.70;99.90;;;;;;4969841;28;20027;-79
2023/09/09 08:16:15;;;;;;;6.95;3.15;;;22.10;99.90;;;;;;4968849;28;20065;-79
2023/09/09 08:18:41;;;;;;;6.40;4.55;;;22.30;99.90;;;;;;4970155;28;20585;-78
2023/09/09 08:21:08;;;;;;;5.15;3.63;;;22.40;99.90;;;;;;4970219;28;20034;-78
2023/09/09 08:23:34;;;;;;;6.85;3.97;;;22.50;99.90;;;;;;4968933;28;20031;-78
2023/09/09 08:26:01;;;;;;;3.40;3.05;;;23.10;99.90;;;;;;4952859;28;20031;-78
2023/09/09 08:28:26;;;;;;;7.20;4.00;;;23.80;99.90;;;;;;4970504;28;20566;-78
2023/09/09 08:30:57;;;;;;;3.85;3.33;;;25.00;99.90;;;;;;4970524;28;20126;-78
2023/09/09 08:33:23;;;;;;;6.05;3.85;;;26.40;99.90;;;;;;4952846;28;20046;-77
2023/09/09 08:35:49;;;;;;;6.18;3.42;;;27.00;99.90;;;;;;4970848;28;20030;-78
2023/09/09 08:38:14;;;;;;;9.88;3.83;;;28.00;99.90;;;;;;4970271;28;20015;-78
2023/09/09 08:41:12;;;;;;;3.83;3.50;;;28.30;99.90;;;;;;4968690;28;20027;-77
2023/09/09 08:44:11;;;;;;;9.38;3.25;;;28.50;99.90;;;;;;4970298;28;20029;-78
2023/09/09 08:46:37;;;;;;;5.20;3.95;;;28.60;98.30;;;;;;4952730;28;20113;-78
2023/09/09 08:49:06;;;;;;;3.45;3.20;;;28.80;96.40;;;;;;4968358;28;20144;-78
2023/09/09 08:51:42;;;;;;;10.70;3.47;;;28.40;97.30;;;;;;4968622;28;20042;-78
2023/09/09 08:54:09;;;;;;;5.85;3.40;;;27.70;98.00;;;;;;4972665;28;20027;-79
2023/09/09 08:56:36;;;;;;;5.18;3.50;;;27.40;98.30;;;;;;4973490;28;20035;-78
2023/09/09 08:59:03;;;;;;;3.78;3.47;;;27.10;99.00;;;;;;4972552;28;20050;-78
2023/09/09 09:01:30;;;;;;;5.15;3.33;;;26.40;99.90;;;;;;4973928;28;20038;-78
2023/09/09 09:03:57;;;;;;;6.50;3.40;;;26.30;99.90;;;;;;4972014;28;20259;-78
2023/09/09 09:06:23;;;;;;;7.10;3.78;;;26.40;99.90;;;;;;4972605;28;20027;-78
2023/09/09 09:08:49;;;;;;;6.20;3.53;;;26.50;99.90;;;;;;4956570;28;20285;-78
2023/09/09 09:11:15;;;;;;;8.32;3.20;;;26.70;99.90;;;;;;4956148;28;20270;-78
2023/09/09 09:13:41;;;;;;;4.72;3.47;;;27.20;99.50;;;;;;4973703;28;20488;-78
2023/09/09 09:16:07;;;;;;;5.20;3.38;;;27.60;99.20;;;;;;4973581;28;20062;-79
2023/09/09 09:18:35;;;;;;;7.93;3.92;;;28.10;98.60;;;;;;4971740;28;20050;-77
2023/09/09 09:21:09;;;;;;;6.18;3.97;;;28.50;97.80;;;;;;4973605;28;20031;-79
2023/09/09 09:23:42;;;;;;;5.80;3.90;;;28.70;96.70;;;;;;4975528;28;20022;-79
2023/09/09 09:26:26;;;;;;;5.07;4.03;;;28.90;96.60;;;;;;4979434;28;20027;-78
2023/09/09 09:28:52;;;;;;;12.43;4.07;;;28.80;96.10;;;;;;4976071;28;20019;-78
2023/09/09 09:31:25;;;;;;;10.18;4.53;;;28.70;96.50;;;;;;4981661;28;20062;-79
2023/09/09 09:33:52;;;;;;;5.55;4.20;;;29.10;95.90;;;;;;4974113;28;20022;-79
2023/09/09 09:36:21;;;;;;;4.43;3.13;;;29.60;95.50;;;;;;4971638;28;20027;-78
2023/09/09 09:38:49;;;;;;;4.22;3.40;;;29.20;94.90;;;;;;4971083;28;20026;-78
2023/09/09 09:41:16;;;;;;;4.68;3.53;;;29.40;94.80;;;;;;4973274;28;20027;-78
2023/09/09 09:43:42;;;;;;;4.55;3.38;;;29.40;94.70;;;;;;4976845;28;20038;-78
2023/09/09 09:46:19;;;;;;;5.93;3.15;;;29.50;94.60;;;;;;4984450;28;20030;-78
2023/09/09 09:48:44;;;;;;;7.18;3.95;;;29.30;94.30;;;;;;5000991;28;20366;-79
2023/09/09 09:51:11;;;;;;;4.47;3.50;;;29.10;93.30;;;;;;5003175;28;20093;-78
2023/09/09 09:53:49;;;;;;;5.97;4.55;;;29.10;92.40;;;;;;4985835;28;20206;-78
2023/09/09 09:56:16;;;;;;;6.07;4.57;;;29.10;92.50;;;;;;5003309;28;20294;-78
2023/09/09 09:58:45;;;;;;;5.18;3.85;;;28.90;92.30;;;;;;5003219;28;20080;-79
2023/09/09 10:01:11;;;;;;;;;;;28.70;92.70;;;;;;4986251;28;20018;-77
2023/09/09 10:04:01;;;;;;;5.57;3.60;;;28.70;92.70;;;;;;4985722;28;19901;-78
2023/09/09 10:06:28;;;;;;;3.78;3.20;;;28.80;92.10;;;;;;5002981;28;20064;-78
2023/09/09 10:09:06;;;;;;;3.53;3.22;;;29.00;93.30;;;;;;5003293;28;20026;-78
2023/09/09 10:11:40;;;;;;;6.38;3.67;;;28.90;92.90;;;;;;4985909;28;20104;-77
2023/09/09 10:14:09;;;;;;;5.53;3.22;;;29.00;92.60;;;;;;4985617;28;20022;-77
2023/09/09 10:16:36;;;;;;;4.00;3.25;;;29.30;92.20;;;;;;4986166;28;20218;-78
2023/09/09 10:19:03;;;;;;;4.30;3.47;;;29.50;91.20;;;;;;4985903;28;20022;-76
2023/09/09 10:21:32;;;;;;;10.15;4.60;;;29.70;91.20;;;;;;5002925;28;20045;-79
2023/09/09 10:23:59;;;;;;;7.20;3.65;;;29.80;91.70;;;;;;4985736;28;20025;-78
2023/09/09 10:26:25;;;;;;;4.28;3.85;;;29.80;92.40;;;;;;5002933;28;20230;-78
2023/09/09 10:28:53;;;;;;;9.93;4.00;;;30.20;90.70;;;;;;4985496;28;20093;-77
2023/09/09 10:31:19;;;;;;;4.53;3.25;;;30.10;91.40;;;;;;5003035;28;20231;-78
2023/09/09 10:33:47;;;;;;;6.53;4.30;;;30.30;90.10;;;;;;4985574;28;20215;-79
2023/09/09 10:36:18;;;;;;;4.82;3.58;;;30.40;90.50;;;;;;5002788;28;20026;-78
2023/09/09 10:38:44;;;;;;;6.32;3.53;;;30.50;90.60;;;;;;4985673;28;20018;-78
2023/09/09 10:41:11;;;;;;;4.50;4.05;;;30.60;89.70;;;;;;4985538;28;20076;-79
2023/09/09 10:43:37;;;;;;;9.57;4.05;;;30.40;88.40;;;;;;5002670;28;20010;-78
2023/09/09 10:46:02;;;;;;;5.55;3.47;;;30.70;88.60;;;;;;4985185;28;20053;-77
2023/09/09 10:48:29;;;;;;;4.07;3.03;;;30.90;87.20;;;;;;5002075;28;20118;-79
2023/09/09 10:50:55;;;;;;;4.20;2.97;;;31.10;87.10;;;;;;4973738;28;20034;-78
2023/09/09 10:53:28;;;;;;;7.70;3.35;;;31.20;86.90;;;;;;4991708;28;20052;-78
2023/09/09 10:55:58;;;;;;;3.15;2.85;;;31.40;86.50;;;;;;4991618;28;20030;-78
2023/09/09 10:58:44;;;;;;;5.75;3.28;;;31.20;84.20;;;;;;4991402;28;20046;-76
2023/09/09 11:01:24;;;;;;;5.38;3.15;;;31.00;85.50;;;;;;4991056;28;20022;-79
2023/09/09 11:03:51;;;;;;;5.00;3.47;;;31.10;84.10;;;;;;4972057;28;20482;-79
2023/09/09 11:06:28;;;;;;;6.25;3.40;;;30.60;85.00;;;;;;4990784;28;20097;-76
2023/09/09 11:09:00;;;;;;;6.60;3.03;;;30.70;84.40;;;;;;4973047;28;20034;-75
2023/09/09 11:11:37;;;;;;;10.25;4.28;;;30.90;84.70;;;;;;4972522;28;20030;-78
2023/09/09 11:14:04;;;;;;;5.00;3.45;;;31.20;84.40;;;;;;4988578;28;20027;-78
2023/09/09 11:16:46;;;;;;;3.65;3.25;;;30.90;85.20;;;;;;4988641;28;20026;-78
2023/09/09 11:19:14;;;;;;;4.32;2.40;;;30.90;84.00;;;;;;4971439;28;20085;-76
2023/09/09 11:21:43;;;;;;;5.85;3.20;;;30.70;85.30;;;;;;4990050;28;20065;-76
2023/09/09 11:24:10;;;;;;;3.75;3.40;;;30.40;84.90;;;;;;4987522;28;20439;-76
2023/09/09 11:26:41;;;;;;;4.90;3.15;;;30.30;83.40;;;;;;4990612;28;20026;-77
2023/09/09 11:29:08;;;;;;;3.63;3.33;;;30.30;84.70;;;;;;4974743;28;20050;-76
2023/09/09 11:31:34;;;;;;;3.25;3.00;;;30.00;84.80;;;;;;4972578;28;20046;-78
2023/09/09 11:34:00;;;;;;;3.85;3.33;;;30.20;84.60;;;;;;4989431;28;20033;-78
2023/09/09 11:36:28;;;;;;;4.05;3.28;;;29.60;83.70;;;;;;4970382;28;20283;-78
2023/09/09 11:38:56;;;;;;;5.10;3.50;;;29.60;82.90;;;;;;4984037;28;20424;-78
2023/09/09 11:41:24;;;;;;;5.53;3.20;;;29.60;83.20;;;;;;4975678;28;20022;-78
2023/09/09 11:43:57;;;;;;;4.68;2.78;;;29.70;82.40;;;;;;4991073;28;20030;-77
2023/09/09 11:46:24;;;;;;;6.45;2.97;;;29.70;80.70;;;;;;4981081;28;20029;-78
2023/09/09 11:48:51;;;;;;;6.18;3.50;;;30.00;82.70;;;;;;4992398;28;20176;-77
2023/09/09 11:51:17;;;;;;;4.05;3.15;;;30.50;80.90;;;;;;4975846;28;20030;-77
2023/09/09 11:53:45;;;;;;;9.40;3.40;;;30.90;79.50;;;;;;4989866;28;20408;-77
2023/09/09 11:56:13;;;;;;;4.18;3.40;;;31.80;76.10;;;;;;4988459;28;20023;-77
2023/09/09 11:58:39;;;;;;;25.02;3.30;;;32.80;75.10;;;;;;4994314;28;20021;-76
2023/09/09 12:01:05;;;;;;;6.10;3.10;;;33.40;72.60;;;;;;4987406;28;20037;-75
2023/09/09 12:03:31;;;;;;;4.55;2.75;;;34.50;72.80;;;;;;4971388;28;20022;-76
2023/09/09 12:05:58;;;;;;;4.20;2.78;;;35.30;70.20;;;;;;4970891;28;20109;-76
2023/09/09 12:08:26;;;;;;;4.30;2.92;;;35.60;68.70;;;;;;4989056;28;20019;-75
2023/09/09 12:10:54;;;;;;;3.90;2.53;;;34.60;66.90;;;;;;4989152;28;20416;-75
2023/09/09 12:13:20;;;;;;;;;;;34.20;68.80;;;;;;4989294;28;20022;-76
2023/09/09 12:15:47;;;;;;;2.70;2.50;;;33.70;67.60;;;;;;4983156;28;20302;-76
2023/09/09 12:18:13;;;;;;;6.80;2.67;;;33.90;66.80;;;;;;4983607;28;20022;-76
2023/09/09 12:20:59;;;;;;;4.70;2.80;;;34.80;65.10;;;;;;4970630;28;20041;-76
2023/09/09 12:23:27;;;;;;;5.85;2.50;;;35.00;64.50;;;;;;4987565;28;20014;-76
2023/09/09 12:25:53;;;;;;;2.60;2.40;;;35.40;61.70;;;;;;4990219;28;20153;-77
2023/09/09 12:28:19;;;;;;;4.18;2.40;;;35.70;61.00;;;;;;4992959;28;20030;-76
2023/09/09 12:30:45;;;;;;;3.83;2.38;;;36.10;59.90;;;;;;4997256;28;20077;-76
2023/09/09 12:33:16;;;;;;;3.40;2.22;;;36.90;58.70;;;;;;4998289;28;20377;-77
2023/09/09 12:35:46;;;;;;;5.22;2.88;;;37.50;57.30;;;;;;4996972;28;20030;-77
2023/09/09 12:38:11;;;;;;;3.25;2.47;;;37.00;54.90;;;;;;4997044;28;20333;-76
2023/09/09 12:40:52;;;;;;;4.50;2.28;;;37.00;55.00;;;;;;4992329;28;20447;-76
2023/09/09 12:43:22;;;;;;;3.75;1.95;;;37.10;54.30;;;;;;4980862;28;20031;-77
2023/09/09 12:46:11;;;;;;;3.22;1.80;;;36.80;55.90;;;;;;4994491;28;20019;-76
2023/09/09 12:48:59;;;;;;;2.92;2.35;;;37.20;55.50;;;;;;4998733;28;20305;-76